Time;durP1;ratioP1;P1;durP2;ratioP2;P2;SDS_P1;SDS_P2;PMS_P1;PMS_P2;Temp;Humidity;BMP_temperature;BMP_pressure;BME280_temperature;BME280_humidity;BME280_pressure;Samples;Min_cycle;Max_cycle;Signal;HPM_P1;HPM_P2
2022/11/30 00:01:15;;;;;;;250.98;37.13;;;;;;;6.86;100.00;101906.25;4946143;28;20034;-80
2022/11/30 00:03:40;;;;;;;283.13;38.10;;;;;;;6.84;100.00;101913.56;4995853;28;20483;-80
2022/11/30 00:06:07;;;;;;;290.92;37.15;;;;;;;6.91;100.00;101913.22;4977690;28;20049;-81
2022/11/30 00:08:33;;;;;;;241.57;36.72;;;;;;;6.85;100.00;101899.00;4987598;28;20511;-80
2022/11/30 00:10:58;;;;;;;305.10;40.38;;;;;;;6.88;100.00;101915.22;4978789;28;20050;-81
2022/11/30 00:13:24;;;;;;;302.33;39.35;;;;;;;6.84;100.00;101903.59;4979776;28;20157;-80
2022/11/30 00:15:49;;;;;;;322.83;40.85;;;;;;;6.89;100.00;101914.25;4967169;28;20109;-80
2022/11/30 00:18:16;;;;;;;337.38;40.13;;;;;;;6.92;100.00;101906.84;4944597;28;20035;-80
2022/11/30 00:20:42;;;;;;;356.27;41.20;;;;;;;6.91;100.00;101915.94;4964506;28;20113;-80
2022/11/30 00:23:08;;;;;;;340.55;39.60;;;;;;;6.92;100.00;101920.44;4948689;28;20419;-80
2022/11/30 00:25:35;;;;;;;359.80;42.30;;;;;;;6.89;100.00;101919.72;4959854;28;20124;-80
2022/11/30 00:28:01;;;;;;;317.73;42.08;;;;;;;6.87;100.00;101911.59;4952568;28;20034;-80
2022/11/30 00:30:26;;;;;;;316.35;40.25;;;;;;;6.89;100.00;101917.00;4962108;28;20048;-80
2022/11/30 00:32:56;;;;;;;320.63;42.30;;;;;;;6.91;100.00;101913.22;4938965;28;20557;-79
2022/11/30 00:35:22;;;;;;;298.58;41.30;;;;;;;6.90;100.00;101910.56;4973976;28;20498;-80
2022/11/30 00:37:47;;;;;;;311.90;40.22;;;;;;;6.91;100.00;101910.50;4977313;28;20045;-80
2022/11/30 00:40:13;;;;;;;280.33;40.80;;;;;;;6.93;100.00;101902.25;4930337;28;20034;-80
2022/11/30 00:42:38;;;;;;;298.42;40.83;;;;;;;6.90;100.00;101902.41;4974316;28;20046;-80
2022/11/30 00:45:04;;;;;;;289.42;42.92;;;;;;;6.97;100.00;101904.78;4972454;28;20061;-80
2022/11/30 00:47:29;;;;;;;282.58;40.78;;;;;;;6.90;100.00;101907.84;4956942;28;20030;-81
2022/11/30 00:49:55;;;;;;;275.58;40.38;;;;;;;6.90;100.00;101908.72;4981278;28;20136;-80
2022/11/30 00:52:20;;;;;;;247.05;39.08;;;;;;;6.91;100.00;101915.06;4956542;28;20038;-80
2022/11/30 00:54:48;;;;;;;256.08;41.20;;;;;;;6.91;100.00;101912.34;4961878;28;20560;-80
2022/11/30 00:57:14;;;;;;;269.73;40.03;;;;;;;6.80;100.00;101894.69;4969595;28;20053;-81
2022/11/30 00:59:39;;;;;;;266.90;38.15;;;;;;;6.95;100.00;101908.50;4984647;28;20038;-80
2022/11/30 01:02:04;;;;;;;294.85;38.97;;;;;;;6.98;100.00;101911.09;4984740;28;20034;-80
2022/11/30 01:04:30;;;;;;;243.13;39.75;;;;;;;6.96;100.00;101899.41;4950742;28;20042;-80
2022/11/30 01:06:55;;;;;;;230.43;36.92;;;;;;;7.06;100.00;101905.28;4985199;28;20037;-80
2022/11/30 01:09:21;;;;;;;275.33;38.25;;;;;;;7.05;100.00;101912.59;5002571;28;20041;-80
2022/11/30 01:11:46;;;;;;;259.63;39.88;;;;;;;7.01;100.00;101913.66;5019143;28;20030;-81
2022/11/30 01:14:12;;;;;;;209.60;35.13;;;;;;;7.10;100.00;101926.88;5000979;28;20041;-80
2022/11/30 01:16:37;;;;;;;226.55;38.03;;;;;;;7.10;100.00;101921.41;5016671;28;20108;-80
2022/11/30 01:19:03;;;;;;;211.07;35.47;;;;;;;7.09;100.00;101927.81;4982302;28;20108;-80
2022/11/30 01:21:29;;;;;;;237.85;37.88;;;;;;;7.03;100.00;101930.81;4998342;28;20064;-80
2022/11/30 01:23:54;;;;;;;203.50;36.95;;;;;;;7.08;100.00;101936.91;5000808;28;20512;-80
2022/11/30 01:26:21;;;;;;;225.23;37.92;;;;;;;7.07;100.00;101945.19;5018201;28;20087;-80
2022/11/30 01:28:51;;;;;;;195.23;35.92;;;;;;;7.07;100.00;101942.47;5019039;28;20496;-80
2022/11/30 01:31:16;;;;;;;177.90;35.20;;;;;;;7.14;100.00;101941.22;4984586;28;20037;-80
2022/11/30 01:33:42;;;;;;;194.93;34.80;;;;;;;7.11;100.00;101933.19;4998611;28;20410;-81
2022/11/30 01:36:17;;;;;;;159.48;34.10;;;;;;;7.12;100.00;101946.72;4977361;28;20067;-80
2022/11/30 01:38:45;;;;;;;190.18;35.05;;;;;;;7.11;100.00;101939.50;4976331;28;20116;-80
2022/11/30 01:41:14;;;;;;;155.38;33.40;;;;;;;7.13;100.00;101928.53;4983412;28;20371;-80
2022/11/30 01:43:44;;;;;;;141.27;32.60;;;;;;;7.17;100.00;101930.19;4991341;28;20074;-80
2022/11/30 01:46:42;;;;;;;171.40;33.92;;;;;;;7.10;100.00;101932.31;4979875;28;20398;-80
2022/11/30 01:49:08;;;;;;;142.52;30.95;;;;;;;7.16;100.00;101940.16;4961774;28;20493;-80
2022/11/30 01:51:48;;;;;;;144.35;33.40;;;;;;;7.08;100.00;101934.19;4984647;28;20029;-81
2022/11/30 01:54:21;;;;;;;135.30;32.33;;;;;;;7.07;100.00;101932.44;4987973;28;20393;-80
2022/11/30 01:56:54;;;;;;;142.55;32.10;;;;;;;7.02;100.00;101937.22;4979125;28;20126;-79
2022/11/30 01:59:22;;;;;;;143.82;32.65;;;;;;;7.06;100.00;101940.69;4987438;28;20038;-80
2022/11/30 02:01:48;;;;;;;128.38;30.65;;;;;;;7.05;100.00;101949.81;4979915;28;20030;-80
2022/11/30 02:04:22;;;;;;;107.18;31.38;;;;;;;7.07;100.00;101956.97;4946168;28;20436;-80
2022/11/30 02:06:48;;;;;;;124.05;31.65;;;;;;;7.07;100.00;101956.97;4966678;28;20135;-79
2022/11/30 02:09:16;;;;;;;111.15;32.63;;;;;;;7.07;100.00;101962.41;4963732;28;20043;-78
2022/11/30 02:11:42;;;;;;;123.85;31.50;;;;;;;7.04;100.00;101962.53;4976134;28;20031;-79
2022/11/30 02:14:32;;;;;;;131.40;34.53;;;;;;;7.02;100.00;101959.00;4979834;28;20368;-79
2022/11/30 02:17:34;;;;;;;117.30;31.42;;;;;;;7.02;100.00;101953.56;4995773;28;20064;-79
2022/11/30 02:20:21;;;;;;;116.15;31.90;;;;;;;6.99;100.00;101959.16;5000545;28;20394;-79
2022/11/30 02:23:08;;;;;;;113.40;31.05;;;;;;;6.95;100.00;101960.25;4979618;28;20043;-79
2022/11/30 02:26:11;;;;;;;104.13;31.30;;;;;;;6.97;100.00;101956.50;4983968;28;20026;-79
2022/11/30 02:28:52;;;;;;;100.82;30.70;;;;;;;6.94;100.00;101963.94;4979556;28;20042;-79
2022/11/30 02:31:24;;;;;;;97.63;31.42;;;;;;;6.90;100.00;101954.13;4986327;28;20031;-79
2022/11/30 02:33:51;;;;;;;90.75;30.58;;;;;;;6.90;100.00;101963.16;4985748;28;20042;-78
2022/11/30 02:36:17;;;;;;;109.57;29.98;;;;;;;6.93;100.00;101962.16;4978172;28;20406;-79
2022/11/30 02:38:43;;;;;;;95.07;30.30;;;;;;;6.88;100.00;101964.22;4974566;28;20062;-78
2022/11/30 02:41:08;;;;;;;95.65;29.48;;;;;;;6.83;100.00;101960.81;4980661;28;20495;-78
2022/11/30 02:43:34;;;;;;;94.22;29.73;;;;;;;6.80;100.00;101953.66;4953396;28;20038;-78
2022/11/30 02:46:17;;;;;;;90.75;28.00;;;;;;;6.83;100.00;101950.81;4981694;28;20070;-79
2022/11/30 02:49:09;;;;;;;85.60;28.73;;;;;;;6.78;100.00;101956.44;4950017;28;20386;-78
2022/11/30 02:51:37;;;;;;;90.65;28.38;;;;;;;6.73;100.00;101961.22;4977854;28;20038;-78
2022/11/30 02:54:03;;;;;;;96.20;32.15;;;;;;;6.72;100.00;101958.56;4998157;28;20038;-78
2022/11/30 02:56:29;;;;;;;94.32;31.83;;;;;;;6.71;100.00;101957.69;4987080;28;20057;-79
2022/11/30 02:58:54;;;;;;;99.15;30.00;;;;;;;6.71;100.00;101954.97;4949973;28;20146;-78
2022/11/30 03:01:21;;;;;;;94.97;30.80;;;;;;;6.72;100.00;101956.75;4965281;28;20073;-79
2022/11/30 03:03:46;;;;;;;97.32;30.27;;;;;;;6.72;100.00;101961.28;4978698;28;20027;-79
2022/11/30 03:06:12;;;;;;;92.82;31.65;;;;;;;6.63;100.00;101949.88;4973333;28;20129;-79
2022/11/30 03:08:37;;;;;;;102.70;30.75;;;;;;;6.67;100.00;101956.06;4980422;28;20038;-79
2022/11/30 03:11:04;;;;;;;100.53;32.05;;;;;;;6.64;100.00;101961.66;4977488;28;20038;-79
2022/11/30 03:13:30;;;;;;;88.07;30.90;;;;;;;6.63;100.00;101960.75;4980541;28;20521;-79
2022/11/30 03:15:56;;;;;;;93.78;31.67;;;;;;;6.58;100.00;101960.06;4964590;28;20231;-79
2022/11/30 03:18:21;;;;;;;97.68;31.10;;;;;;;6.57;100.00;101957.41;4964589;28;20034;-79
2022/11/30 03:20:46;;;;;;;100.30;32.95;;;;;;;6.58;100.00;101960.06;4965056;28;20058;-80
2022/11/30 03:23:12;;;;;;;105.45;32.42;;;;;;;6.59;100.00;101958.22;4962465;28;20621;-79
2022/11/30 03:25:37;;;;;;;99.80;32.53;;;;;;;6.66;100.00;101959.75;4965112;28;20490;-78
2022/11/30 03:28:03;;;;;;;107.82;31.77;;;;;;;6.65;100.00;101962.53;4947366;28;20502;-80
2022/11/30 03:30:29;;;;;;;98.47;32.88;;;;;;;6.60;100.00;101970.91;4961654;28;20038;-79
2022/11/30 03:32:54;;;;;;;91.32;30.92;;;;;;;6.53;100.00;101966.69;4960388;28;20043;-78
2022/11/30 03:35:19;;;;;;;100.93;32.28;;;;;;;6.54;100.00;101966.63;4960439;28;20034;-79
2022/11/30 03:37:49;;;;;;;93.07;31.10;;;;;;;6.50;100.00;101970.41;4979043;28;20387;-79
2022/11/30 03:40:14;;;;;;;94.55;32.30;;;;;;;6.44;100.00;101973.41;4969202;28;20074;-79
2022/11/30 03:42:40;;;;;;;105.70;32.50;;;;;;;6.41;100.00;101963.56;4994904;28;20046;-78
2022/11/30 03:45:08;;;;;;;92.93;31.27;;;;;;;6.37;100.00;101966.47;4980343;28;20443;-78
2022/11/30 03:47:34;;;;;;;102.82;32.67;;;;;;;6.37;100.00;101967.34;4965432;28;20046;-79
2022/11/30 03:49:59;;;;;;;98.70;32.13;;;;;;;6.43;100.00;101964.38;4979497;28;20042;-79
2022/11/30 03:52:24;;;;;;;103.57;33.17;;;;;;;6.37;100.00;101972.78;4976195;28;20525;-78
2022/11/30 03:54:50;;;;;;;112.45;34.25;;;;;;;6.40;100.00;101972.66;4961991;28;20487;-79
2022/11/30 03:57:15;;;;;;;105.90;32.55;;;;;;;6.36;100.00;101979.19;4973075;28;20031;-78
2022/11/30 03:59:41;;;;;;;109.35;33.03;;;;;;;6.34;100.00;101977.47;4970687;28;20034;-78
2022/11/30 04:02:06;;;;;;;107.30;32.33;;;;;;;6.32;100.00;101972.09;4946841;28;20034;-79
2022/11/30 04:04:31;;;;;;;105.05;32.92;;;;;;;6.29;100.00;101974.94;4947845;28;20121;-78
2022/11/30 04:06:57;;;;;;;114.40;34.72;;;;;;;6.31;100.00;101972.16;4978964;28;20034;-79
2022/11/30 04:09:22;;;;;;;109.03;32.50;;;;;;;6.34;100.00;101978.34;4980319;28;20125;-79
2022/11/30 04:11:48;;;;;;;106.05;32.00;;;;;;;6.35;100.00;101971.09;4997755;28;20050;-79
2022/11/30 04:14:13;;;;;;;107.88;33.17;;;;;;;6.30;100.00;101976.72;4949171;28;20094;-79
2022/11/30 04:16:39;;;;;;;102.13;32.60;;;;;;;6.31;100.00;101983.03;4998588;28;20030;-80
2022/11/30 04:19:04;;;;;;;100.38;32.38;;;;;;;6.32;100.00;101980.25;4964966;28;20062;-79
2022/11/30 04:21:29;;;;;;;104.30;33.00;;;;;;;6.32;100.00;101977.53;4979515;28;20094;-79
2022/11/30 04:23:55;;;;;;;119.78;33.60;;;;;;;6.28;100.00;101984.09;4948866;28;20438;-78
2022/11/30 04:26:20;;;;;;;109.85;33.13;;;;;;;6.30;100.00;101971.28;4967979;28;20049;-79
2022/11/30 04:28:48;;;;;;;99.07;32.35;;;;;;;6.29;100.00;101972.22;4980648;28;20066;-79
2022/11/30 04:31:14;;;;;;;108.20;33.05;;;;;;;6.27;100.00;101971.41;4949547;28;20045;-79
2022/11/30 04:33:39;;;;;;;112.30;32.00;;;;;;;6.27;100.00;101974.16;4947674;28;20050;-79
2022/11/30 04:36:14;;;;;;;95.32;33.08;;;;;;;6.19;100.00;101965.44;4979628;28;20483;-79
2022/11/30 04:38:40;;;;;;;104.85;31.15;;;;;;;6.16;100.00;101974.59;4978719;28;20038;-79
2022/11/30 04:41:07;;;;;;;108.88;32.70;;;;;;;6.16;100.00;101974.59;4962708;28;20027;-79
2022/11/30 04:43:33;;;;;;;108.90;32.00;;;;;;;6.15;100.00;101974.66;4976630;28;20035;-79
2022/11/30 04:45:58;;;;;;;117.35;32.67;;;;;;;6.16;100.00;101982.75;4977836;28;20065;-79
2022/11/30 04:48:24;;;;;;;101.32;32.28;;;;;;;6.11;100.00;101981.19;4962682;28;20093;-79
2022/11/30 04:50:49;;;;;;;105.47;31.08;;;;;;;6.13;100.00;101985.59;4976313;28;20502;-78
2022/11/30 04:53:15;;;;;;;102.03;32.38;;;;;;;6.11;100.00;101984.78;4959493;28;20038;-79
2022/11/30 04:55:40;;;;;;;114.40;31.77;;;;;;;6.13;100.00;101987.44;4949993;28;20065;-78
2022/11/30 04:58:09;;;;;;;109.80;32.55;;;;;;;6.12;100.00;101985.69;4963261;28;20049;-79
2022/11/30 05:00:35;;;;;;;126.95;33.38;;;;;;;6.11;100.00;101984.78;4946589;28;20042;-79
2022/11/30 05:03:01;;;;;;;113.07;33.25;;;;;;;6.14;100.00;101983.78;4961613;28;20030;-79
2022/11/30 05:05:26;;;;;;;117.80;33.67;;;;;;;6.13;100.00;101982.88;4979300;28;20038;-79
2022/11/30 05:07:57;;;;;;;112.50;32.85;;;;;;;6.11;100.00;101984.78;4979396;28;20037;-79
2022/11/30 05:10:23;;;;;;;114.15;33.25;;;;;;;6.14;100.00;101986.50;4977521;28;20030;-79
2022/11/30 05:12:49;;;;;;;118.18;34.35;;;;;;;6.13;100.00;101984.72;4968342;28;20102;-78
2022/11/30 05:15:15;;;;;;;110.35;33.35;;;;;;;6.16;100.00;101988.19;4982047;28;20466;-79
2022/11/30 05:17:40;;;;;;;123.65;35.83;;;;;;;6.17;100.00;101987.25;4960520;28;20061;-78
2022/11/30 05:20:06;;;;;;;114.40;32.13;;;;;;;6.17;100.00;101991.81;4945520;28;20043;-78
2022/11/30 05:22:33;;;;;;;114.18;32.58;;;;;;;6.20;100.00;101997.13;4995128;28;20053;-79
2022/11/30 05:24:59;;;;;;;100.35;32.05;;;;;;;6.10;100.00;101999.34;4964287;28;20046;-79
2022/11/30 05:27:24;;;;;;;102.65;31.30;;;;;;;6.13;100.00;101999.19;4949185;28;20038;-79
2022/11/30 05:29:50;;;;;;;110.65;30.77;;;;;;;6.09;100.00;101991.25;4998469;28;20045;-79
2022/11/30 05:32:15;;;;;;;113.68;32.35;;;;;;;6.07;100.00;101986.75;4977990;28;20422;-79
2022/11/30 05:34:41;;;;;;;120.90;32.88;;;;;;;6.11;100.00;101997.50;4964621;28;20065;-78
2022/11/30 05:37:06;;;;;;;101.90;32.45;;;;;;;6.02;100.00;101996.94;4965003;28;20034;-77
2022/11/30 05:39:31;;;;;;;116.53;34.17;;;;;;;6.04;100.00;102000.47;4968415;28;20034;-79
2022/11/30 05:41:57;;;;;;;109.57;34.15;;;;;;;6.02;100.00;102005.09;4992273;28;20050;-78
2022/11/30 05:44:22;;;;;;;95.15;32.20;;;;;;;5.98;100.00;102008.00;4967177;28;20053;-79
2022/11/30 05:46:48;;;;;;;105.18;32.85;;;;;;;5.97;100.00;102008.94;4981546;28;20039;-77
2022/11/30 05:49:13;;;;;;;110.95;32.95;;;;;;;5.91;100.00;102003.75;4976232;28;20057;-79
2022/11/30 05:51:39;;;;;;;107.70;32.35;;;;;;;5.93;100.00;102007.28;4977478;28;20118;-79
2022/11/30 05:54:05;;;;;;;103.93;30.25;;;;;;;5.86;100.00;102002.06;4981945;28;20049;-78
2022/11/30 05:56:30;;;;;;;101.80;31.00;;;;;;;5.85;100.00;102007.56;4982490;28;20046;-78
2022/11/30 05:58:56;;;;;;;110.22;29.38;;;;;;;5.88;100.00;102011.03;5007469;28;20061;-78
2022/11/30 06:01:30;;;;;;;104.07;30.85;;;;;;;5.78;100.00;102009.66;4964075;28;20034;-78
2022/11/30 06:03:56;;;;;;;102.30;30.80;;;;;;;5.76;100.00;102014.28;4999296;28;20034;-78
2022/11/30 06:06:22;;;;;;;111.07;30.17;;;;;;;5.76;100.00;102016.13;4983116;28;20057;-78
2022/11/30 06:08:48;;;;;;;104.57;29.90;;;;;;;5.69;100.00;102012.75;4995426;28;20037;-78
2022/11/30 06:11:14;;;;;;;121.88;33.58;;;;;;;5.69;100.00;102021.78;5002103;28;20041;-78
2022/11/30 06:13:40;;;;;;;117.45;31.35;;;;;;;5.67;100.00;102015.53;4985204;28;20049;-78
2022/11/30 06:16:08;;;;;;;109.80;31.77;;;;;;;5.65;100.00;102017.41;4983976;28;20273;-78
2022/11/30 06:18:35;;;;;;;108.80;29.08;;;;;;;5.59;100.00;102017.69;5017668;28;20034;-78
2022/11/30 06:21:03;;;;;;;102.88;30.85;;;;;;;5.59;100.00;102025.84;4997490;28;20030;-78
2022/11/30 06:23:30;;;;;;;113.18;31.55;;;;;;;5.65;100.00;102024.69;4992035;28;20030;-78
2022/11/30 06:25:55;;;;;;;102.63;31.05;;;;;;;5.50;100.00;102020.75;4982345;28;20389;-78
2022/11/30 06:28:21;;;;;;;106.82;30.05;;;;;;;5.55;100.00;102029.59;5001763;28;20034;-79
2022/11/30 06:30:46;;;;;;;103.47;31.65;;;;;;;5.52;100.00;102033.31;4966333;28;20038;-79
2022/11/30 06:33:12;;;;;;;110.55;31.13;;;;;;;5.54;100.00;102030.53;4985099;28;20049;-79
2022/11/30 06:35:44;;;;;;;106.18;30.77;;;;;;;5.60;100.00;102033.00;5001569;28;20029;-79
2022/11/30 06:38:09;;;;;;;117.07;31.17;;;;;;;5.56;100.00;102030.47;5000050;28;20089;-79
2022/11/30 06:40:35;;;;;;;103.88;32.60;;;;;;;5.62;100.00;102030.25;4983057;28;20033;-80
2022/11/30 06:43:00;;;;;;;116.38;32.22;;;;;;;5.62;100.00;102025.69;5000700;28;20089;-80
2022/11/30 06:45:26;;;;;;;103.60;29.88;;;;;;;5.65;100.00;102031.00;4998606;28;20064;-80
2022/11/30 06:47:54;;;;;;;124.13;31.35;;;;;;;5.56;100.00;102028.66;4995380;28;20041;-79
2022/11/30 06:50:19;;;;;;;110.50;29.55;;;;;;;5.52;100.00;102037.84;5005102;28;20053;-78
2022/11/30 06:52:45;;;;;;;111.15;31.38;;;;;;;5.41;100.00;102029.25;4981018;28;20041;-79
2022/11/30 06:55:10;;;;;;;112.18;29.42;;;;;;;5.41;100.00;102034.66;4979108;28;20055;-79
2022/11/30 06:57:36;;;;;;;105.10;29.33;;;;;;;5.38;100.00;102038.41;4979785;28;20487;-79
2022/11/30 07:00:02;;;;;;;113.03;33.30;;;;;;;5.36;100.00;102037.56;4958171;28;20031;-79
2022/11/30 07:02:28;;;;;;;106.68;29.30;;;;;;;5.37;100.00;102043.91;4985479;28;20478;-79
2022/11/30 07:04:53;;;;;;;107.07;31.92;;;;;;;5.38;100.00;102040.22;4983276;28;20041;-79
2022/11/30 07:07:19;;;;;;;100.45;29.60;;;;;;;5.42;100.00;102036.44;4994810;28;20038;-78
2022/11/30 07:09:44;;;;;;;114.10;30.08;;;;;;;5.39;100.00;102042.88;4982749;28;20034;-83
2022/11/30 07:12:10;;;;;;;117.35;30.95;;;;;;;5.34;100.00;102028.59;4973884;28;20470;-79
2022/11/30 07:14:35;;;;;;;90.35;29.17;;;;;;;5.41;100.00;102045.53;4980876;28;20058;-80
2022/11/30 07:17:03;;;;;;;104.40;30.38;;;;;;;5.40;100.00;102043.78;4982212;28;20038;-80
2022/11/30 07:19:29;;;;;;;96.35;28.92;;;;;;;5.44;100.00;102056.28;4979300;28;20058;-81
2022/11/30 07:21:55;;;;;;;99.40;30.00;;;;;;;5.39;100.00;102053.75;4947701;28;20034;-81
2022/11/30 07:27:05;;;;;;;105.18;30.98;;;;;;;5.39;100.00;102066.44;4970812;28;20070;-80
2022/11/30 07:29:31;;;;;;;98.38;29.90;;;;;;;5.39;100.00;102067.31;4979320;28;20038;-79
2022/11/30 07:31:56;;;;;;;106.53;31.33;;;;;;;5.33;100.00;102067.56;4958324;28;20070;-81
2022/11/30 07:34:22;;;;;;;92.45;29.80;;;;;;;5.33;100.00;102070.28;4973683;28;20046;-81
2022/11/30 07:36:47;;;;;;;98.65;29.52;;;;;;;5.30;100.00;102073.13;4979148;28;20078;-81
2022/11/30 07:39:14;;;;;;;96.43;28.92;;;;;;;5.30;100.00;102070.41;4986566;28;20485;-81
2022/11/30 07:41:41;;;;;;;112.97;29.85;;;;;;;5.24;100.00;102070.63;4998725;28;20038;-81
2022/11/30 07:44:07;;;;;;;104.07;30.10;;;;;;;5.28;100.00;102084.03;4965177;28;20030;-81
2022/11/30 07:46:35;;;;;;;109.47;30.63;;;;;;;5.28;100.00;102084.03;4966003;28;20045;-81
2022/11/30 07:49:05;;;;;;;103.40;28.48;;;;;;;5.21;100.00;102077.03;4996708;28;20041;-81
2022/11/30 07:51:31;;;;;;;94.30;29.23;;;;;;;5.25;100.00;102084.13;4999378;28;20030;-81
2022/11/30 07:53:57;;;;;;;97.43;29.35;;;;;;;5.28;100.00;102096.69;4967580;28;20034;-80
2022/11/30 07:56:23;;;;;;;93.53;29.17;;;;;;;5.26;100.00;102093.16;4971167;28;20122;-81
2022/11/30 07:58:53;;;;;;;100.97;27.85;;;;;;;5.23;100.00;102105.03;4963383;28;20054;-81
2022/11/30 08:01:21;;;;;;;92.47;27.83;;;;;;;5.24;100.00;102104.06;4962583;28;20035;-81
2022/11/30 08:03:47;;;;;;;114.05;30.70;;;;;;;5.32;100.00;102104.69;4962363;28;20034;-81
2022/11/30 08:06:25;;;;;;;93.40;29.42;;;;;;;5.34;100.00;102105.53;4997732;28;20038;-80
2022/11/30 08:08:52;;;;;;;97.38;29.85;;;;;;;5.48;100.00;102115.00;5018474;28;20033;-81
2022/11/30 08:11:21;;;;;;;101.15;28.73;;;;;;;5.61;100.00;102116.31;4952843;28;20166;-81
2022/11/30 08:13:46;;;;;;;92.07;29.70;;;;;;;5.63;100.00;102110.81;4962984;28;20046;-80
2022/11/30 08:16:14;;;;;;;96.30;30.17;;;;;;;5.75;100.00;102117.59;4949599;28;20042;-81
2022/11/30 08:18:40;;;;;;;112.18;31.77;;;;;;;5.73;100.00;102116.78;5012679;28;20057;-80
2022/11/30 08:21:08;;;;;;;93.13;30.65;;;;;;;5.79;100.00;102117.44;4961498;28;20097;-80
2022/11/30 08:23:39;;;;;;;113.28;33.53;;;;;;;5.78;100.00;102120.19;4976731;28;20118;-81
2022/11/30 08:26:11;;;;;;;89.65;30.25;;;;;;;5.82;100.00;102124.56;4975417;28;20026;-80
2022/11/30 08:28:37;;;;;;;104.63;31.52;;;;;;;5.86;100.00;102118.94;5001586;28;20037;-81
2022/11/30 08:31:07;;;;;;;100.50;31.90;;;;;;;5.87;100.00;102118.00;5016935;28;20037;-81
2022/11/30 08:33:33;;;;;;;92.70;30.13;;;;;;;5.89;100.00;102123.38;4988298;28;20120;-81
2022/11/30 08:36:20;;;;;;;108.55;32.05;;;;;;;5.96;100.00;102132.19;4995954;28;20121;-81
2022/11/30 08:38:46;;;;;;;92.35;29.80;;;;;;;5.94;100.00;102134.09;4980755;28;20036;-79
2022/11/30 08:41:14;;;;;;;102.75;32.28;;;;;;;5.98;100.00;102133.03;4970955;28;20034;-81
2022/11/30 08:43:40;;;;;;;100.57;30.55;;;;;;;5.99;100.00;102137.53;4989397;28;20497;-80
2022/11/30 08:46:09;;;;;;;92.68;30.35;;;;;;;5.98;100.00;102144.78;4984963;28;20061;-80
2022/11/30 08:48:35;;;;;;;97.63;30.55;;;;;;;6.02;100.00;102140.16;4978148;28;20471;-79
2022/11/30 08:51:05;;;;;;;96.18;30.75;;;;;;;6.04;100.00;102146.41;4978557;28;20157;-80
2022/11/30 08:53:32;;;;;;;88.93;30.15;;;;;;;6.12;100.00;102146.09;4980716;28;20057;-80
2022/11/30 08:56:06;;;;;;;85.60;30.67;;;;;;;6.19;100.00;102140.34;4980924;28;20557;-80
2022/11/30 08:58:34;;;;;;;103.30;32.92;;;;;;;6.23;100.00;102141.09;5014431;28;20437;-81
2022/11/30 09:01:08;;;;;;;92.57;31.55;;;;;;;6.24;100.00;102135.59;4998571;28;20049;-80
2022/11/30 09:03:35;;;;;;;93.68;30.88;;;;;;;6.29;100.00;102146.31;4983579;28;20045;-80
2022/11/30 09:06:26;;;;;;;90.20;30.52;;;;;;;6.40;100.00;102149.47;5000506;28;20053;-80
2022/11/30 09:08:54;;;;;;;85.15;31.00;;;;;;;6.47;100.00;102147.38;5020733;28;20026;-81
2022/11/30 09:11:29;;;;;;;81.93;29.98;;;;;;;6.53;100.00;102144.41;5012158;28;20053;-81
2022/11/30 09:13:57;;;;;;;79.50;30.90;;;;;;;6.47;100.00;102138.34;5020650;28;20034;-81
2022/11/30 09:16:24;;;;;;;71.93;29.02;;;;;;;6.53;100.00;102147.13;4972475;28;20030;-81
2022/11/30 09:18:50;;;;;;;75.93;28.98;;;;;;;6.43;100.00;102143.91;5004156;28;20038;-80
2022/11/30 09:21:19;;;;;;;71.03;28.17;;;;;;;6.38;100.00;102145.94;4988289;28;20393;-80
2022/11/30 09:23:45;;;;;;;77.47;31.13;;;;;;;6.44;100.00;102148.41;5000663;28;20033;-80
2022/11/30 09:26:13;;;;;;;85.63;31.23;;;;;;;6.44;100.00;102145.69;4986925;28;20030;-80
2022/11/30 09:28:39;;;;;;;74.90;29.35;;;;;;;6.59;100.00;102151.44;5021298;28;20057;-80
2022/11/30 09:31:11;;;;;;;69.38;29.35;;;;;;;6.77;100.00;102152.50;5003818;28;20416;-80
2022/11/30 09:33:37;;;;;;;72.90;31.13;;;;;;;7.00;100.00;102143.34;5002751;28;20496;-80
2022/11/30 09:36:08;;;;;;;67.50;30.05;;;;;;;7.21;100.00;102148.81;5020465;28;20034;-80
2022/11/30 09:38:34;;;;;;;62.08;28.52;;;;;;;7.39;100.00;102156.16;4985161;28;20110;-81
2022/11/30 09:41:05;;;;;;;64.28;28.85;;;;;;;7.23;100.00;102160.53;5002102;28;20400;-80
2022/11/30 09:43:46;;;;;;;57.70;27.23;;;;;;;7.14;100.00;102151.78;5004081;28;21453;-80
2022/11/30 09:46:12;;;;;;;67.93;27.10;;;;;;;7.21;100.00;102152.41;5018340;28;20072;-81
2022/11/30 09:48:50;;;;;;;67.28;28.42;;;;;;;7.26;100.00;102146.75;5003065;28;20034;-81
2022/11/30 09:51:24;;;;;;;64.35;29.30;;;;;;;7.24;100.00;102146.84;4992416;28;20117;-80
2022/11/30 09:54:00;;;;;;;64.13;27.50;;;;;;;7.18;100.00;102145.28;5002064;28;20105;-80
2022/11/30 09:56:36;;;;;;;68.60;29.67;;;;;;;7.14;100.00;102148.19;4994457;28;20061;-80
2022/11/30 09:59:28;;;;;;;69.47;30.33;;;;;;;7.11;100.00;102138.31;4983842;28;20032;-81
2022/11/30 10:01:55;;;;;;;66.93;29.77;;;;;;;7.14;100.00;102148.19;4984039;28;20046;-81
2022/11/30 10:04:24;;;;;;;62.75;27.00;;;;;;;7.16;100.00;102149.88;4994607;28;20557;-79
2022/11/30 10:06:59;;;;;;;68.95;29.23;;;;;;;7.17;100.00;102154.38;4978522;28;20089;-79
2022/11/30 10:09:35;;;;;;;70.55;30.05;;;;;;;7.27;100.00;102145.81;4970965;28;20034;-80
2022/11/30 10:12:12;;;;;;;70.15;30.17;;;;;;;7.30;100.00;102138.41;4999620;28;20038;-80
2022/11/30 10:14:56;;;;;;;74.03;30.75;;;;;;;7.27;100.00;102140.38;4986871;28;20385;-79
2022/11/30 10:17:40;;;;;;;73.32;30.88;;;;;;;7.22;100.00;102143.31;4987509;28;20030;-80
2022/11/30 10:20:33;;;;;;;70.72;29.30;;;;;;;7.17;100.00;102148.06;4998946;28;20026;-80
2022/11/30 10:23:24;;;;;;;77.80;30.92;;;;;;;7.35;100.00;102144.53;4979121;28;20109;-80
2022/11/30 10:25:53;;;;;;;75.00;30.55;;;;;;;7.35;100.00;102140.91;4985805;28;20031;-79
2022/11/30 10:28:33;;;;;;;70.20;30.75;;;;;;;7.23;100.00;102141.44;4999854;28;20038;-81
2022/11/30 10:31:00;;;;;;;81.65;31.35;;;;;;;7.21;100.00;102132.47;4969109;28;20082;-80
2022/11/30 10:33:37;;;;;;;78.78;33.03;;;;;;;7.06;100.00;102131.31;4972375;28;20038;-80
2022/11/30 10:36:23;;;;;;;83.00;33.05;;;;;;;6.94;100.00;102135.47;4981150;28;20482;-80
2022/11/30 10:38:59;;;;;;;81.63;33.55;;;;;;;6.99;100.00;102137.00;4982779;28;20096;-81
2022/11/30 10:41:31;;;;;;;79.15;32.83;;;;;;;6.99;100.00;102134.28;4982276;28;20079;-80
2022/11/30 10:44:04;;;;;;;78.90;32.65;;;;;;;6.90;100.00;102129.22;4973048;28;20031;-80
2022/11/30 10:46:35;;;;;;;;;;;;;;;6.88;100.00;102133.00;4998315;28;20422;-81
2022/11/30 10:49:05;;;;;;;78.32;31.58;;;;;;;6.83;100.00;102126.88;4998051;28;19989;-81
2022/11/30 10:51:35;;;;;;;91.38;34.22;;;;;;;6.86;100.00;102126.75;4996669;28;20513;-81
2022/11/30 10:54:04;;;;;;;87.75;34.70;;;;;;;6.81;100.00;102119.63;4983985;28;20027;-81
2022/11/30 10:56:29;;;;;;;88.68;34.47;;;;;;;6.87;100.00;102129.41;5009854;28;20421;-81
2022/11/30 10:59:15;;;;;;;92.93;33.40;;;;;;;6.88;100.00;102122.09;4951160;28;20043;-80
2022/11/30 11:01:41;;;;;;;94.32;35.25;;;;;;;6.99;100.00;102122.53;4979668;28;20062;-81
2022/11/30 11:04:17;;;;;;;95.40;35.58;;;;;;;6.96;100.00;102114.50;4963953;28;20035;-81
2022/11/30 11:06:53;;;;;;;96.85;35.67;;;;;;;7.03;100.00;102117.81;4991911;28;20371;-81
2022/11/30 11:09:26;;;;;;;92.00;35.65;;;;;;;7.05;100.00;102116.81;4999045;28;20027;-80
2022/11/30 11:11:56;;;;;;;104.75;37.45;;;;;;;7.06;100.00;102115.84;5013931;28;20046;-80
2022/11/30 11:14:23;;;;;;;93.55;36.08;;;;;;;7.11;100.00;102111.06;4966056;28;20031;-80